Time;durP1;ratioP1;P1;durP2;ratioP2;P2;SDS_P1;SDS_P2;PMS_P1;PMS_P2;Temp;Humidity;BMP_temperature;BMP_pressure;BME280_temperature;BME280_humidity;BME280_pressure;Samples;Min_cycle;Max_cycle;Signal;HPM_P1;HPM_P2
2024/01/07 00:00:38;;;;;;;13.05;9.27;;;;;;;;;;5041146;28;20055;-79
2024/01/07 00:03:04;;;;;;;17.00;11.80;;;;;;;;;;5052956;28;20041;-78
2024/01/07 00:05:30;;;;;;;18.63;12.10;;;;;;;;;;5022041;28;20046;-79
2024/01/07 00:07:56;;;;;;;16.63;8.93;;;;;;;;;;5039217;28;20119;-78
2024/01/07 00:10:22;;;;;;;16.77;11.25;;;;;;;;;;5018823;28;20056;-78
2024/01/07 00:12:50;;;;;;;13.88;9.13;;;;;;;;;;5036029;28;20415;-78
2024/01/07 00:15:16;;;;;;;16.08;11.52;;;;;;;;;;5053028;28;20056;-79
2024/01/07 00:17:42;;;;;;;18.08;11.30;;;;;;;;;;5046347;28;20460;-79
2024/01/07 00:20:08;;;;;;;17.77;12.18;;;;;;;;;;5018840;28;20111;-78
2024/01/07 00:22:34;;;;;;;16.15;10.60;;;;;;;;;;5047975;28;20076;-78
2024/01/07 00:25:00;;;;;;;16.73;11.02;;;;;;;;;;5044002;28;20049;-78
2024/01/07 00:27:26;;;;;;;16.42;11.95;;;;;;;;;;5033432;28;20045;-79
2024/01/07 00:29:52;;;;;;;16.85;11.52;;;;;;;;;;5034868;28;20049;-79
2024/01/07 00:32:18;;;;;;;18.95;11.77;;;;;;;;;;5044678;28;20057;-79
2024/01/07 00:34:45;;;;;;;19.77;11.50;;;;;;;;;;5033290;28;20072;-78
2024/01/07 00:37:11;;;;;;;17.20;11.63;;;;;;;;;;5049299;28;20529;-78
2024/01/07 00:39:37;;;;;;;20.50;11.82;;;;;;;;;;5048798;28;20453;-79
2024/01/07 00:42:03;;;;;;;16.75;11.07;;;;;;;;;;5033052;28;20045;-79
2024/01/07 00:44:29;;;;;;;16.00;10.60;;;;;;;;;;5052229;28;20048;-78
2024/01/07 00:46:55;;;;;;;16.73;11.75;;;;;;;;;;5052960;28;20049;-78
2024/01/07 00:49:21;;;;;;;16.25;10.80;;;;;;;;;;5046274;28;20048;-78
2024/01/07 00:51:47;;;;;;;17.73;12.52;;;;;;;;;;5031667;28;20074;-78
2024/01/07 00:54:13;;;;;;;19.17;12.77;;;;;;;;;;5026683;28;20065;-79
2024/01/07 00:56:39;;;;;;;15.93;10.55;;;;;;;;;;5029827;28;20077;-78
2024/01/07 00:59:05;;;;;;;18.50;13.15;;;;;;;;;;5044545;28;20044;-78
2024/01/07 01:01:31;;;;;;;20.65;13.75;;;;;;;;;;5054009;28;20044;-79
2024/01/07 01:03:57;;;;;;;17.75;12.52;;;;;;;;;;5052158;28;20048;-79
2024/01/07 01:06:24;;;;;;;18.15;11.38;;;;;;;;;;5014910;28;20053;-79
2024/01/07 01:08:50;;;;;;;19.08;13.05;;;;;;;;;;5025607;28;20526;-79
2024/01/07 01:11:16;;;;;;;19.42;13.05;;;;;;;;;;5046974;28;20051;-78
2024/01/07 01:13:42;;;;;;;19.92;12.48;;;;;;;;;;5035680;28;20095;-79
2024/01/07 01:16:08;;;;;;;16.55;10.38;;;;;;;;;;5055753;28;20132;-78
2024/01/07 01:18:34;;;;;;;20.05;12.30;;;;;;;;;;5053240;28;20041;-79
2024/01/07 01:21:00;;;;;;;15.43;10.93;;;;;;;;;;5040358;28;20053;-78
2024/01/07 01:23:26;;;;;;;17.33;11.35;;;;;;;;;;5026792;28;20078;-79
2024/01/07 01:25:52;;;;;;;17.13;11.90;;;;;;;;;;5014815;28;20065;-78
2024/01/07 01:28:18;;;;;;;20.13;12.38;;;;;;;;;;5051423;28;20045;-79
2024/01/07 01:30:44;;;;;;;16.35;10.60;;;;;;;;;;5054407;28;20072;-78
2024/01/07 01:33:10;;;;;;;15.32;10.13;;;;;;;;;;5025177;28;20491;-78
2024/01/07 01:35:36;;;;;;;16.85;11.75;;;;;;;;;;5017145;28;20117;-78
2024/01/07 01:38:02;;;;;;;17.23;11.40;;;;;;;;;;5032118;28;20041;-78
2024/01/07 01:40:29;;;;;;;18.20;11.77;;;;;;;;;;5035252;28;20065;-78
2024/01/07 01:42:55;;;;;;;17.70;12.00;;;;;;;;;;5034390;28;20060;-78
2024/01/07 01:45:21;;;;;;;16.98;10.85;;;;;;;;;;5038772;28;20050;-78
2024/01/07 01:47:50;;;;;;;14.52;9.90;;;;;;;;;;5015686;28;20050;-77
2024/01/07 01:50:17;;;;;;;15.40;11.52;;;;;;;;;;5010559;28;20044;-79
2024/01/07 01:52:44;;;;;;;13.85;10.13;;;;;;;;;;5002051;28;20052;-79
2024/01/07 01:55:10;;;;;;;16.15;11.00;;;;;;;;;;5037853;28;20045;-78
2024/01/07 01:57:37;;;;;;;16.00;11.27;;;;;;;;;;5032080;28;20052;-79
2024/01/07 02:00:04;;;;;;;14.95;9.95;;;;;;;;;;5033841;28;20046;-79
2024/01/07 02:02:31;;;;;;;16.38;10.85;;;;;;;;;;5016363;28;20055;-78
2024/01/07 02:04:58;;;;;;;17.00;11.40;;;;;;;;;;5019826;28;20139;-79
2024/01/07 02:07:25;;;;;;;16.38;11.52;;;;;;;;;;5031294;28;20061;-79
2024/01/07 02:09:51;;;;;;;13.95;8.77;;;;;;;;;;5016119;28;20037;-78
2024/01/07 02:12:17;;;;;;;13.30;9.05;;;;;;;;;;5036639;28;20414;-78
2024/01/07 02:14:43;;;;;;;15.10;10.55;;;;;;;;;;5036633;28;20490;-78
2024/01/07 02:17:09;;;;;;;16.08;10.25;;;;;;;;;;5034427;28;20071;-78
2024/01/07 02:19:35;;;;;;;15.93;9.90;;;;;;;;;;5030941;28;20455;-79
2024/01/07 02:22:01;;;;;;;17.55;10.32;;;;;;;;;;5028817;28;20045;-78
2024/01/07 02:24:27;;;;;;;14.75;9.10;;;;;;;;;;5033942;28;20042;-78
2024/01/07 02:26:53;;;;;;;16.42;8.95;;;;;;;;;;5035361;28;20092;-79
2024/01/07 02:29:19;;;;;;;13.75;9.82;;;;;;;;;;5035406;28;20041;-79
2024/01/07 02:31:45;;;;;;;13.05;8.15;;;;;;;;;;5029931;28;20080;-78
2024/01/07 02:34:12;;;;;;;15.57;8.65;;;;;;;;;;5030658;28;20046;-79
2024/01/07 02:36:38;;;;;;;13.98;8.57;;;;;;;;;;5015683;28;20550;-79
2024/01/07 02:39:04;;;;;;;13.57;8.73;;;;;;;;;;5040951;28;20417;-78
2024/01/07 02:41:30;;;;;;;12.77;8.52;;;;;;;;;;5054957;28;20142;-78
2024/01/07 02:43:56;;;;;;;12.13;7.53;;;;;;;;;;5054169;28;20052;-79
2024/01/07 02:46:24;;;;;;;13.98;8.20;;;;;;;;;;5016954;28;20053;-79
2024/01/07 02:48:50;;;;;;;11.90;8.45;;;;;;;;;;5034937;28;20099;-78
2024/01/07 02:51:16;;;;;;;12.35;8.10;;;;;;;;;;5029989;28;20056;-78
2024/01/07 02:53:42;;;;;;;12.38;7.93;;;;;;;;;;5029173;28;20179;-78
2024/01/07 02:56:08;;;;;;;14.73;8.20;;;;;;;;;;5047853;28;20045;-78
2024/01/07 02:58:35;;;;;;;14.55;7.72;;;;;;;;;;5049859;28;20052;-78
2024/01/07 03:01:01;;;;;;;12.20;8.75;;;;;;;;;;5041661;28;20498;-78
2024/01/07 03:03:27;;;;;;;13.63;8.13;;;;;;;;;;5044751;28;20041;-78
2024/01/07 03:05:53;;;;;;;12.93;7.88;;;;;;;;;;5034278;28;20098;-79
2024/01/07 03:08:19;;;;;;;13.20;8.48;;;;;;;;;;5034053;28;20053;-79
2024/01/07 03:10:45;;;;;;;12.55;8.45;;;;;;;;;;5048182;28;20049;-79
2024/01/07 03:13:12;;;;;;;12.20;7.75;;;;;;;;;;5042771;28;20080;-78
2024/01/07 03:15:38;;;;;;;13.45;9.00;;;;;;;;;;5047501;28;20059;-78
2024/01/07 03:18:04;;;;;;;13.70;9.00;;;;;;;;;;5022416;28;20594;-78
2024/01/07 03:20:30;;;;;;;15.70;8.57;;;;;;;;;;5022283;28;20099;-79
2024/01/07 03:22:56;;;;;;;12.57;7.70;;;;;;;;;;5041543;28;20510;-79
2024/01/07 03:25:22;;;;;;;12.55;7.93;;;;;;;;;;5039033;28;20052;-79
2024/01/07 03:27:48;;;;;;;12.75;7.25;;;;;;;;;;5045695;28;20445;-78
2024/01/07 03:30:15;;;;;;;12.55;7.53;;;;;;;;;;5023036;28;20050;-79
2024/01/07 03:32:41;;;;;;;14.25;7.25;;;;;;;;;;5027459;28;20045;-79
2024/01/07 03:35:11;;;;;;;12.68;7.07;;;;;;;;;;5032967;28;20037;-79
2024/01/07 03:37:37;;;;;;;13.98;7.55;;;;;;;;;;5025027;28;20128;-78
2024/01/07 03:40:03;;;;;;;11.95;7.78;;;;;;;;;;5039446;28;20446;-79
2024/01/07 03:42:29;;;;;;;12.73;7.40;;;;;;;;;;5042652;28;20048;-78
2024/01/07 03:44:55;;;;;;;12.00;7.85;;;;;;;;;;5052342;28;20057;-78
2024/01/07 03:47:21;;;;;;;11.35;6.53;;;;;;;;;;5046241;28;20048;-78
2024/01/07 03:49:47;;;;;;;11.90;7.57;;;;;;;;;;5018988;28;20118;-79
2024/01/07 03:52:13;;;;;;;10.95;7.03;;;;;;;;;;5041807;28;20048;-78
2024/01/07 03:54:39;;;;;;;12.02;8.10;;;;;;;;;;5041593;28;20103;-79
2024/01/07 03:57:05;;;;;;;11.45;6.80;;;;;;;;;;5045826;28;20056;-79
2024/01/07 03:59:31;;;;;;;13.40;6.60;;;;;;;;;;5041283;28;20445;-78
2024/01/07 04:01:57;;;;;;;12.65;6.85;;;;;;;;;;5033375;28;20407;-79
2024/01/07 04:04:24;;;;;;;10.25;6.65;;;;;;;;;;5049650;28;20045;-78
2024/01/07 04:06:50;;;;;;;10.75;6.63;;;;;;;;;;5033912;28;20034;-78
2024/01/07 04:09:16;;;;;;;9.88;5.05;;;;;;;;;;5042770;28;20044;-78
2024/01/07 04:11:42;;;;;;;9.55;6.85;;;;;;;;;;5049720;28;20494;-78
2024/01/07 04:14:08;;;;;;;10.27;6.15;;;;;;;;;;5039032;28;20059;-78
2024/01/07 04:16:35;;;;;;;10.43;6.65;;;;;;;;;;5041098;28;20042;-78
2024/01/07 04:19:01;;;;;;;11.07;6.40;;;;;;;;;;5034648;28;20037;-78
2024/01/07 04:21:27;;;;;;;11.15;6.28;;;;;;;;;;5037233;28;20045;-79
2024/01/07 04:23:53;;;;;;;10.40;5.80;;;;;;;;;;5033112;28;20045;-78
2024/01/07 04:26:19;;;;;;;10.48;4.50;;;;;;;;;;5037108;28;20116;-79
2024/01/07 04:28:45;;;;;;;9.18;5.70;;;;;;;;;;5051333;28;20056;-78
2024/01/07 04:31:11;;;;;;;10.02;5.53;;;;;;;;;;5047051;28;20049;-78
2024/01/07 04:33:37;;;;;;;9.63;5.45;;;;;;;;;;5026564;28;20042;-79
2024/01/07 04:36:04;;;;;;;9.63;5.35;;;;;;;;;;5048430;28;20111;-78
2024/01/07 04:38:30;;;;;;;10.10;5.20;;;;;;;;;;5040697;28;20395;-78
2024/01/07 04:40:56;;;;;;;11.18;5.13;;;;;;;;;;5052542;28;20494;-79
2024/01/07 04:43:22;;;;;;;9.00;4.85;;;;;;;;;;5052786;28;20411;-78
2024/01/07 04:45:48;;;;;;;10.15;4.80;;;;;;;;;;5052927;28;20041;-78
2024/01/07 04:48:14;;;;;;;8.15;4.88;;;;;;;;;;5049375;28;20554;-78
2024/01/07 04:50:44;;;;;;;7.65;3.90;;;;;;;;;;5033315;28;20049;-79
2024/01/07 04:53:10;;;;;;;9.82;4.80;;;;;;;;;;5040588;28;20052;-78
2024/01/07 04:55:37;;;;;;;8.82;4.80;;;;;;;;;;5041635;28;20048;-79
2024/01/07 04:58:04;;;;;;;9.77;4.75;;;;;;;;;;5047238;28;20401;-78
2024/01/07 05:00:30;;;;;;;8.60;4.82;;;;;;;;;;5048342;28;20036;-79
2024/01/07 05:02:56;;;;;;;9.10;5.43;;;;;;;;;;5049551;28;20045;-78
2024/01/07 05:05:23;;;;;;;9.25;4.13;;;;;;;;;;5050937;28;20044;-79
2024/01/07 05:07:49;;;;;;;8.52;4.30;;;;;;;;;;5034600;28;20053;-78
2024/01/07 05:10:15;;;;;;;7.40;3.95;;;;;;;;;;5041473;28;20076;-78
2024/01/07 05:12:41;;;;;;;6.72;3.55;;;;;;;;;;5017279;28;20519;-78
2024/01/07 05:15:07;;;;;;;7.32;3.92;;;;;;;;;;5024150;28;20110;-79
2024/01/07 05:17:33;;;;;;;9.00;4.22;;;;;;;;;;5049308;28;20047;-78
2024/01/07 05:20:00;;;;;;;7.53;3.58;;;;;;;;;;5051665;28;20059;-78
2024/01/07 05:22:26;;;;;;;9.20;4.00;;;;;;;;;;5034570;28;20041;-78
2024/01/07 05:24:52;;;;;;;7.07;3.38;;;;;;;;;;5032731;28;20037;-78
2024/01/07 05:27:18;;;;;;;7.07;3.03;;;;;;;;;;5020472;28;20414;-78
2024/01/07 05:29:47;;;;;;;9.13;4.03;;;;;;;;;;5033272;28;20462;-78
2024/01/07 05:32:13;;;;;;;6.18;2.88;;;;;;;;;;5029886;28;20482;-78
2024/01/07 05:34:39;;;;;;;5.78;2.80;;;;;;;;;;5039198;28;20056;-79
2024/01/07 05:37:05;;;;;;;8.43;3.00;;;;;;;;;;5042609;28;20048;-78
2024/01/07 05:39:31;;;;;;;6.97;3.33;;;;;;;;;;5041682;28;20045;-78
2024/01/07 05:41:57;;;;;;;7.13;3.30;;;;;;;;;;5043976;28;20053;-78
2024/01/07 05:44:23;;;;;;;8.40;3.40;;;;;;;;;;5043335;28;20074;-78
2024/01/07 05:46:49;;;;;;;6.15;2.42;;;;;;;;;;5037610;28;20044;-79
2024/01/07 05:49:15;;;;;;;7.57;2.97;;;;;;;;;;5039964;28;20438;-78
2024/01/07 05:51:41;;;;;;;6.30;3.00;;;;;;;;;;5033248;28;20047;-78
2024/01/07 05:54:07;;;;;;;5.72;2.50;;;;;;;;;;5046055;28;20437;-78
2024/01/07 05:56:39;;;;;;;6.20;2.28;;;;;;;;;;5050007;28;20375;-78
2024/01/07 05:59:05;;;;;;;6.22;2.45;;;;;;;;;;5022758;28;20051;-78
2024/01/07 06:01:31;;;;;;;6.80;2.78;;;;;;;;;;5049910;28;20068;-78
2024/01/07 06:03:57;;;;;;;7.78;2.90;;;;;;;;;;5025386;28;20515;-78
2024/01/07 06:06:23;;;;;;;7.47;2.80;;;;;;;;;;5033281;28;20491;-78
2024/01/07 06:08:49;;;;;;;6.03;2.65;;;;;;;;;;5048806;28;20082;-79
2024/01/07 06:11:20;;;;;;;5.57;2.50;;;;;;;;;;5015887;28;20050;-78
2024/01/07 06:13:46;;;;;;;6.45;2.70;;;;;;;;;;5030065;28;20416;-78
2024/01/07 06:16:12;;;;;;;6.20;2.47;;;;;;;;;;5021740;28;20443;-78
2024/01/07 06:18:38;;;;;;;6.47;2.53;;;;;;;;;;5051112;28;20063;-77
2024/01/07 06:21:05;;;;;;;6.65;2.53;;;;;;;;;;5052706;28;20143;-78
2024/01/07 06:23:33;;;;;;;6.88;2.58;;;;;;;;;;5047454;28;20127;-78
2024/01/07 06:25:59;;;;;;;5.78;2.42;;;;;;;;;;5043328;28;20045;-78
2024/01/07 06:28:25;;;;;;;7.65;2.67;;;;;;;;;;5036838;28;20520;-78
2024/01/07 06:30:51;;;;;;;4.90;2.00;;;;;;;;;;5053396;28;20118;-77
2024/01/07 06:33:17;;;;;;;4.30;1.83;;;;;;;;;;5027011;28;20054;-78
2024/01/07 06:35:44;;;;;;;9.82;2.35;;;;;;;;;;5017248;28;20048;-79
2024/01/07 06:38:10;;;;;;;4.90;2.28;;;;;;;;;;5041758;28;20041;-78
2024/01/07 06:40:36;;;;;;;5.40;2.08;;;;;;;;;;5042052;28;20124;-78
2024/01/07 06:43:02;;;;;;;5.90;1.73;;;;;;;;;;5034770;28;20041;-78
2024/01/07 06:45:28;;;;;;;7.00;2.42;;;;;;;;;;5037678;28;20061;-78
2024/01/07 06:47:54;;;;;;;5.88;2.47;;;;;;;;;;5037332;28;20132;-78
2024/01/07 06:50:21;;;;;;;4.68;1.80;;;;;;;;;;5023725;28;20050;-78
2024/01/07 06:52:47;;;;;;;6.05;1.67;;;;;;;;;;5015462;28;20100;-78
2024/01/07 06:55:13;;;;;;;5.75;2.30;;;;;;;;;;5014851;28;20046;-78
2024/01/07 06:57:39;;;;;;;6.20;2.33;;;;;;;;;;5017076;28;20085;-79
2024/01/07 07:00:05;;;;;;;6.63;2.83;;;;;;;;;;5034762;28;20057;-78
2024/01/07 07:02:31;;;;;;;5.82;1.92;;;;;;;;;;5048124;28;20084;-78
2024/01/07 07:04:58;;;;;;;6.70;2.65;;;;;;;;;;5054406;28;20045;-78
2024/01/07 07:07:24;;;;;;;6.22;2.40;;;;;;;;;;5034844;28;20182;-78
2024/01/07 07:09:50;;;;;;;5.13;1.45;;;;;;;;;;5028166;28;20041;-78
2024/01/07 07:12:16;;;;;;;5.28;2.30;;;;;;;;;;5037281;28;20147;-78
2024/01/07 07:14:42;;;;;;;4.60;1.98;;;;;;;;;;5038360;28;20521;-77
2024/01/07 07:17:08;;;;;;;5.85;2.10;;;;;;;;;;5024758;28;20045;-78
2024/01/07 07:19:34;;;;;;;6.75;1.80;;;;;;;;;;5037598;28;20436;-78
2024/01/07 07:22:00;;;;;;;5.22;2.15;;;;;;;;;;5034306;28;20060;-78
2024/01/07 07:24:26;;;;;;;5.57;2.10;;;;;;;;;;5031281;28;20090;-78
2024/01/07 07:26:52;;;;;;;6.18;2.03;;;;;;;;;;5048370;28;20121;-78
2024/01/07 07:29:18;;;;;;;6.70;1.90;;;;;;;;;;5049030;28;20045;-78
2024/01/07 07:31:44;;;;;;;5.57;2.30;;;;;;;;;;5032595;28;20053;-78
2024/01/07 07:34:11;;;;;;;5.32;1.85;;;;;;;;;;5033085;28;20403;-78
2024/01/07 07:36:39;;;;;;;5.70;2.10;;;;;;;;;;5045308;28;20119;-78
2024/01/07 07:39:05;;;;;;;5.47;2.03;;;;;;;;;;5038366;28;20424;-78
2024/01/07 07:41:32;;;;;;;6.88;3.05;;;;;;;;;;5034535;28;20578;-78
2024/01/07 07:43:58;;;;;;;6.32;1.73;;;;;;;;;;5032303;28;20406;-78
2024/01/07 07:46:24;;;;;;;5.32;2.10;;;;;;;;;;5034006;28;20068;-78
2024/01/07 07:48:50;;;;;;;5.30;1.77;;;;;;;;;;5033142;28;20067;-79
2024/01/07 07:51:16;;;;;;;4.55;1.95;;;;;;;;;;5035225;28;20613;-78
2024/01/07 07:53:42;;;;;;;4.70;1.80;;;;;;;;;;5026921;28;20042;-78
2024/01/07 07:56:08;;;;;;;7.03;2.53;;;;;;;;;;5042797;28;20048;-78
2024/01/07 07:58:34;;;;;;;4.32;1.73;;;;;;;;;;5038802;28;20479;-78
2024/01/07 08:01:00;;;;;;;6.47;2.42;;;;;;;;;;5036478;28;20057;-78
2024/01/07 08:03:27;;;;;;;5.72;2.42;;;;;;;;;;5030440;28;20061;-79
2024/01/07 08:05:53;;;;;;;5.68;2.13;;;;;;;;;;5040198;28;20344;-79
2024/01/07 08:08:19;;;;;;;6.75;2.50;;;;;;;;;;5034542;28;20045;-79
2024/01/07 08:10:45;;;;;;;7.53;2.40;;;;;;;;;;5033405;28;20095;-78
2024/01/07 08:13:11;;;;;;;5.50;2.35;;;;;;;;;;5013743;28;20064;-79
2024/01/07 08:15:37;;;;;;;5.53;1.73;;;;;;;;;;5049331;28;20518;-79
2024/01/07 08:18:04;;;;;;;5.05;1.98;;;;;;;;;;5036127;28;20053;-79
2024/01/07 08:20:30;;;;;;;6.97;2.42;;;;;;;;;;5035888;28;20446;-79
2024/01/07 08:22:56;;;;;;;5.65;2.10;;;;;;;;;;5020080;28;20045;-80
2024/01/07 08:25:23;;;;;;;7.40;2.17;;;;;;;;;;5034937;28;20103;-79
2024/01/07 08:27:50;;;;;;;5.63;2.08;;;;;;;;;;5034509;28;20045;-80
2024/01/07 08:30:16;;;;;;;5.38;2.10;;;;;;;;;;5031511;28;20479;-79
2024/01/07 08:32:43;;;;;;;5.82;1.90;;;;;;;;;;5034053;28;20037;-80
2024/01/07 08:35:09;;;;;;;6.43;2.22;;;;;;;;;;5015812;28;20514;-79
2024/01/07 08:37:35;;;;;;;8.57;2.00;;;;;;;;;;5034525;28;20050;-79
2024/01/07 08:40:01;;;;;;;5.05;2.10;;;;;;;;;;5034484;28;20332;-80
2024/01/07 08:42:29;;;;;;;5.18;1.77;;;;;;;;;;5033804;28;20206;-79
2024/01/07 08:44:56;;;;;;;5.57;1.90;;;;;;;;;;5034010;28;20151;-79
2024/01/07 08:47:22;;;;;;;7.50;2.33;;;;;;;;;;5031577;28;20037;-79
2024/01/07 08:49:48;;;;;;;5.47;2.30;;;;;;;;;;5033103;28;20049;-80
2024/01/07 08:52:14;;;;;;;4.35;1.60;;;;;;;;;;5033513;28;20085;-80
2024/01/07 08:54:40;;;;;;;5.60;2.22;;;;;;;;;;5016064;28;20041;-80
2024/01/07 08:57:06;;;;;;;5.38;2.10;;;;;;;;;;5033194;28;20057;-79
2024/01/07 08:59:32;;;;;;;4.85;1.83;;;;;;;;;;5033467;28;20067;-79
2024/01/07 09:01:58;;;;;;;5.95;1.88;;;;;;;;;;5032992;28;20058;-79
2024/01/07 09:04:24;;;;;;;6.50;2.17;;;;;;;;;;5015088;28;20054;-79
2024/01/07 09:06:51;;;;;;;5.22;1.80;;;;;;;;;;5032734;28;20049;-79
2024/01/07 09:09:17;;;;;;;4.60;1.92;;;;;;;;;;5032316;28;20045;-79
2024/01/07 09:11:43;;;;;;;6.57;1.95;;;;;;;;;;5032571;28;20134;-79
2024/01/07 09:14:09;;;;;;;7.50;1.85;;;;;;;;;;5032703;28;20053;-79
2024/01/07 09:16:35;;;;;;;5.60;1.90;;;;;;;;;;5032063;28;20133;-79
2024/01/07 09:19:01;;;;;;;5.03;1.88;;;;;;;;;;5014895;28;20100;-79
2024/01/07 09:21:27;;;;;;;5.93;1.77;;;;;;;;;;5036005;28;20504;-79
2024/01/07 09:23:53;;;;;;;5.43;2.17;;;;;;;;;;5004820;28;20049;-79
2024/01/07 09:26:20;;;;;;;4.60;1.80;;;;;;;;;;5035990;28;20088;-79
2024/01/07 09:28:46;;;;;;;8.18;3.10;;;;;;;;;;5035998;28;20073;-79
2024/01/07 09:31:12;;;;;;;8.52;2.92;;;;;;;;;;5017853;28;20042;-79
2024/01/07 09:33:38;;;;;;;6.32;2.10;;;;;;;;;;5038674;28;20080;-80
2024/01/07 09:36:04;;;;;;;9.38;3.13;;;;;;;;;;5039552;28;20065;-80
2024/01/07 09:38:30;;;;;;;5.10;1.52;;;;;;;;;;5004857;28;20048;-80
2024/01/07 09:40:56;;;;;;;3.80;1.33;;;;;;;;;;5021608;28;20049;-80
2024/01/07 09:43:22;;;;;;;6.55;1.80;;;;;;;;;;5039229;28;20065;-80
2024/01/07 09:45:49;;;;;;;6.75;2.05;;;;;;;;;;5042403;28;20053;-80
2024/01/07 09:48:15;;;;;;;4.72;1.40;;;;;;;;;;5040581;28;20068;-80
2024/01/07 09:50:44;;;;;;;4.47;1.40;;;;;;;;;;5039684;28;20056;-79
2024/01/07 09:53:16;;;;;;;6.90;2.38;;;;;;;;;;5001712;28;20484;-80
2024/01/07 09:55:42;;;;;;;;;;;;;;;;;;5019196;28;20057;-79
2024/01/07 09:58:08;;;;;;;6.50;2.30;;;;;;;;;;5033744;28;19921;-79
2024/01/07 10:00:34;;;;;;;7.47;2.38;;;;;;;;;;5035521;28;20053;-79
2024/01/07 10:03:00;;;;;;;3.75;1.55;;;;;;;;;;5037594;28;20060;-80
2024/01/07 10:05:26;;;;;;;5.43;1.80;;;;;;;;;;5014936;28;20053;-80
2024/01/07 10:07:55;;;;;;;5.68;1.88;;;;;;;;;;5030306;28;20112;-79
2024/01/07 10:10:21;;;;;;;4.40;1.55;;;;;;;;;;5035089;28;20064;-80
2024/01/07 10:12:52;;;;;;;8.38;2.25;;;;;;;;;;5037792;28;20049;-81
2024/01/07 10:15:19;;;;;;;;;;;;;;;;;;5023055;28;20054;-80
2024/01/07 10:17:48;;;;;;;8.30;2.63;;;;;;;;;;5021201;28;19921;-80
2024/01/07 10:20:14;;;;;;;14.80;4.03;;;;;;;;;;5039149;28;20183;-80
2024/01/07 10:22:40;;;;;;;9.07;3.42;;;;;;;;;;5038666;28;20041;-80
2024/01/07 10:25:06;;;;;;;10.30;3.03;;;;;;;;;;5044905;28;20067;-80
2024/01/07 10:27:35;;;;;;;9.18;3.58;;;;;;;;;;5030399;28;20049;-79
2024/01/07 10:30:02;;;;;;;11.10;3.15;;;;;;;;;;5034434;28;20541;-79
2024/01/07 10:32:29;;;;;;;7.18;2.35;;;;;;;;;;5036543;28;20431;-79
2024/01/07 10:34:58;;;;;;;6.65;2.53;;;;;;;;;;5038689;28;20096;-79
2024/01/07 10:37:25;;;;;;;6.38;2.40;;;;;;;;;;5017583;28;20073;-80
2024/01/07 10:39:52;;;;;;;6.97;3.00;;;;;;;;;;5034335;28;20161;-80
2024/01/07 10:42:18;;;;;;;9.43;3.85;;;;;;;;;;5037600;28;20116;-80
2024/01/07 10:44:45;;;;;;;8.02;3.78;;;;;;;;;;5036425;28;20161;-81
2024/01/07 10:47:11;;;;;;;6.20;2.47;;;;;;;;;;5037881;28;20439;-80
2024/01/07 10:49:37;;;;;;;7.60;2.33;;;;;;;;;;5035887;28;20052;-80
2024/01/07 10:52:07;;;;;;;7.75;2.30;;;;;;;;;;5038411;28;20053;-80
2024/01/07 10:54:35;;;;;;;4.97;1.90;;;;;;;;;;5038684;28;20042;-80
2024/01/07 10:57:21;;;;;;;5.47;2.40;;;;;;;;;;5038493;28;20052;-80
2024/01/07 10:59:47;;;;;;;4.30;1.65;;;;;;;;;;5037409;28;20069;-80
2024/01/07 11:02:14;;;;;;;6.30;2.10;;;;;;;;;;5038114;28;20498;-79
2024/01/07 11:04:46;;;;;;;7.07;2.00;;;;;;;;;;5017486;28;20054;-81
2024/01/07 11:07:15;;;;;;;3.97;1.75;;;;;;;;;;5021025;28;20046;-80
2024/01/07 11:09:55;;;;;;;6.55;2.08;;;;;;;;;;5017021;28;20050;-79
2024/01/07 11:12:21;;;;;;;6.28;2.15;;;;;;;;;;5032550;28;20061;-80
2024/01/07 11:14:52;;;;;;;11.35;3.67;;;;;;;;;;5018913;28;20045;-80
2024/01/07 11:17:47;;;;;;;6.18;2.80;;;;;;;;;;5037506;28;20048;-80
2024/01/07 11:20:19;;;;;;;6.38;2.63;;;;;;;;;;5019295;28;20506;-80
2024/01/07 11:22:46;;;;;;;7.13;2.78;;;;;;;;;;5035281;28;20053;-81
2024/01/07 11:25:32;;;;;;;5.35;2.20;;;;;;;;;;5035299;28;20099;-80
2024/01/07 11:27:58;;;;;;;4.93;2.10;;;;;;;;;;5039033;28;20049;-80
2024/01/07 11:30:25;;;;;;;5.55;2.00;;;;;;;;;;5038606;28;20041;-80
2024/01/07 11:33:01;;;;;;;8.60;2.30;;;;;;;;;;5023451;28;20049;-80
2024/01/07 11:35:46;;;;;;;5.63;2.10;;;;;;;;;;5038117;28;20042;-80
2024/01/07 11:38:12;;;;;;;7.82;2.55;;;;;;;;;;5038253;28;20041;-80
2024/01/07 11:40:38;;;;;;;6.60;2.13;;;;;;;;;;5038648;28;20099;-80
2024/01/07 11:43:04;;;;;;;5.93;2.50;;;;;;;;;;5058545;28;20045;-80
2024/01/07 11:45:31;;;;;;;4.55;1.70;;;;;;;;;;5060683;28;20497;-80
2024/01/07 11:47:57;;;;;;;7.30;2.20;;;;;;;;;;5061630;28;20045;-80
2024/01/07 11:50:23;;;;;;;5.60;2.30;;;;;;;;;;5053679;28;20041;-81
2024/01/07 11:52:50;;;;;;;8.70;2.72;;;;;;;;;;5038749;28;20120;-80
2024/01/07 11:55:16;;;;;;;8.98;3.22;;;;;;;;;;5037911;28;20052;-80
2024/01/07 11:57:42;;;;;;;6.18;2.88;;;;;;;;;;5017646;28;20412;-80
2024/01/07 12:00:09;;;;;;;5.78;2.47;;;;;;;;;;5038986;28;20049;-80
2024/01/07 12:02:35;;;;;;;6.78;2.70;;;;;;;;;;5037671;28;20045;-80
2024/01/07 12:05:01;;;;;;;7.05;3.20;;;;;;;;;;5039093;28;20096;-80
2024/01/07 12:07:27;;;;;;;7.22;2.70;;;;;;;;;;5038427;28;20052;-80
2024/01/07 12:09:58;;;;;;;6.65;2.55;;;;;;;;;;5038748;28;20060;-80
2024/01/07 12:12:24;;;;;;;7.65;3.97;;;;;;;;;;5038597;28;20055;-80
2024/01/07 12:14:50;;;;;;;11.40;4.78;;;;;;;;;;5038854;28;20121;-80
2024/01/07 12:17:20;;;;;;;8.35;4.50;;;;;;;;;;5029700;28;20045;-79
2024/01/07 12:19:46;;;;;;;8.68;4.07;;;;;;;;;;5040568;28;20041;-79
2024/01/07 12:22:12;;;;;;;8.65;3.42;;;;;;;;;;5035491;28;20053;-79
2024/01/07 12:24:38;;;;;;;9.50;4.15;;;;;;;;;;5034774;28;20084;-78
2024/01/07 12:27:05;;;;;;;10.32;4.40;;;;;;;;;;5033462;28;20145;-79
2024/01/07 12:29:31;;;;;;;8.55;4.05;;;;;;;;;;5023288;28;20517;-79
2024/01/07 12:31:57;;;;;;;9.40;4.10;;;;;;;;;;5037485;28;20049;-79
2024/01/07 12:34:23;;;;;;;10.23;5.05;;;;;;;;;;5037361;28;20372;-79
2024/01/07 12:36:50;;;;;;;8.65;4.40;;;;;;;;;;5037880;28;20076;-79
2024/01/07 12:39:16;;;;;;;11.10;4.45;;;;;;;;;;5029697;28;20053;-79
2024/01/07 12:41:42;;;;;;;8.07;4.75;;;;;;;;;;5037193;28;20045;-80
2024/01/07 12:44:08;;;;;;;7.72;4.50;;;;;;;;;;5038418;28;20159;-80
2024/01/07 12:46:35;;;;;;;9.43;4.68;;;;;;;;;;5035184;28;20418;-79
2024/01/07 12:49:01;;;;;;;10.18;3.63;;;;;;;;;;5037154;28;20099;-79
2024/01/07 12:51:27;;;;;;;8.57;3.75;;;;;;;;;;5037225;28;20080;-80
2024/01/07 12:53:56;;;;;;;10.68;4.55;;;;;;;;;;5016107;28;20041;-79
2024/01/07 12:56:22;;;;;;;8.65;3.88;;;;;;;;;;5037459;28;20549;-79
2024/01/07 12:58:48;;;;;;;9.32;3.88;;;;;;;;;;5037178;28;20535;-79
2024/01/07 13:01:15;;;;;;;7.57;3.75;;;;;;;;;;5020240;28;20159;-80
2024/01/07 13:03:41;;;;;;;7.53;3.45;;;;;;;;;;5020172;28;20064;-80
2024/01/07 13:06:07;;;;;;;7.72;4.57;;;;;;;;;;5037884;28;20442;-79
2024/01/07 13:08:33;;;;;;;11.63;3.70;;;;;;;;;;5037267;28;20357;-79
2024/01/07 13:11:00;;;;;;;6.97;3.10;;;;;;;;;;5021011;28;20092;-80
2024/01/07 13:13:27;;;;;;;8.25;3.17;;;;;;;;;;5041175;28;20402;-80
2024/01/07 13:15:53;;;;;;;8.25;4.40;;;;;;;;;;5040063;28;20053;-79
2024/01/07 13:18:20;;;;;;;7.10;3.80;;;;;;;;;;5041525;28;20249;-79
2024/01/07 13:20:46;;;;;;;7.97;4.10;;;;;;;;;;5047469;28;20137;-79
2024/01/07 13:23:12;;;;;;;8.50;3.90;;;;;;;;;;5023016;28;20057;-80
2024/01/07 13:25:38;;;;;;;8.43;3.70;;;;;;;;;;5041935;28;20462;-80
2024/01/07 13:28:05;;;;;;;11.80;4.28;;;;;;;;;;5041477;28;20050;-80
2024/01/07 13:30:31;;;;;;;8.13;4.13;;;;;;;;;;5041598;28;20364;-80
2024/01/07 13:32:58;;;;;;;8.38;4.20;;;;;;;;;;5041733;28;20050;-80
2024/01/07 13:35:24;;;;;;;10.93;4.95;;;;;;;;;;5040911;28;20045;-80
2024/01/07 13:37:51;;;;;;;7.88;4.20;;;;;;;;;;5059681;28;20052;-80
2024/01/07 13:40:18;;;;;;;9.57;4.63;;;;;;;;;;5054820;28;20045;-80
2024/01/07 13:42:44;;;;;;;8.05;4.63;;;;;;;;;;5043277;28;20048;-80
2024/01/07 13:45:13;;;;;;;10.98;4.13;;;;;;;;;;5041209;28;20042;-79
2024/01/07 13:47:41;;;;;;;8.38;3.70;;;;;;;;;;5043585;28;20116;-80
2024/01/07 13:50:09;;;;;;;8.48;4.20;;;;;;;;;;5045413;28;20077;-80
2024/01/07 13:52:35;;;;;;;9.13;3.58;;;;;;;;;;5043044;28;20053;-80
2024/01/07 13:55:01;;;;;;;8.13;4.13;;;;;;;;;;5041321;28;20045;-81
2024/01/07 13:57:27;;;;;;;5.30;2.72;;;;;;;;;;5041063;28;20110;-80
2024/01/07 13:59:53;;;;;;;8.23;3.70;;;;;;;;;;5043366;28;20098;-80
2024/01/07 14:02:22;;;;;;;9.65;3.85;;;;;;;;;;5041952;28;20060;-80
2024/01/07 14:04:48;;;;;;;9.52;4.43;;;;;;;;;;5039782;28;20406;-80
2024/01/07 14:07:15;;;;;;;10.63;4.25;;;;;;;;;;5051457;28;20064;-81
2024/01/07 14:09:41;;;;;;;11.00;4.00;;;;;;;;;;5039901;28;20121;-80
2024/01/07 14:12:08;;;;;;;7.85;4.50;;;;;;;;;;5036373;28;20068;-80
2024/01/07 14:14:34;;;;;;;8.77;4.18;;;;;;;;;;5037819;28;20056;-79
2024/01/07 14:17:00;;;;;;;10.05;4.78;;;;;;;;;;5022259;28;20045;-80
2024/01/07 14:19:26;;;;;;;9.88;4.20;;;;;;;;;;5038725;28;20629;-80
2024/01/07 14:21:52;;;;;;;9.32;4.13;;;;;;;;;;5036962;28;20099;-79
2024/01/07 14:24:18;;;;;;;10.27;4.18;;;;;;;;;;5036331;28;20507;-79
2024/01/07 14:26:44;;;;;;;10.80;4.45;;;;;;;;;;5036925;28;20041;-80
2024/01/07 14:29:12;;;;;;;9.07;4.80;;;;;;;;;;5034011;28;20053;-79
2024/01/07 14:31:39;;;;;;;8.68;4.10;;;;;;;;;;5039400;28;20053;-79